Main page
METAR-TAF:

METAR-TAF

Airports :

Aberdeen Airport

Aberdeen, Scotland

latitude: 57-12N, longitude: 002-13W, elevation: 65 m

Current weather observation

The report was made 26 minutes ago, at 08:50 UTC
Wind 7 kt from the Southwest
Temperature 9°C
Humidity 66%
Pressure 1028 hPa
Visibility 10 km or more

METAR: EGPD 260850Z AUTO 23007KT 9999 NCD 09/03 Q1028 NOSIG

Time: 09:16 (09:16 UTC)

Forecast

The report was made 4 hours and 22 minutes ago, at 04:54 UTC
Forecast valid from 26 at 06 UTC to 27 at 06 UTC
Wind 9 kt from the West/Southwest
Visibility 10 km or more
Scattered clouds at a height of 4000 ft
Probability 30% :
Temporary
from 26 at 10 UTC to 26 at 18 UTC
Wind 15 kt from the West/Southwest with gusts up to 25 kt

TAF: EGPD 260454Z 2606/2706 24009KT 9999 SCT040 PROB30 TEMPO 2610/2618 25015G25KT

Weather observations and forecasts of more than 4000 airports (METAR and TAF reports).

The available stations are represented by yellow and red dots on the map.

Hover mouse over dot to see the name of the station.

Then click to see weather observations and forecasts.

To change the map : click on the green buttons with a black cross to zoom in, on the green button with a dash to zoom out, or on the green arrows for adjacent maps.


METAR-TAF: